createdAt,value
2023-02-10T00:01:41.288Z,73.45
2023-02-10T00:04:12.297Z,73.38
2023-02-10T00:06:42.842Z,73.87
2023-02-10T00:09:12.901Z,73.72
2023-02-10T00:12:01.066Z,74.59
2023-02-10T00:14:31.585Z,74.20
2023-02-10T00:17:01.331Z,73.92
2023-02-10T00:19:30.285Z,73.86
2023-02-10T00:21:59.165Z,74.17
2023-02-10T00:24:27.312Z,74.42
2023-02-10T00:26:55.118Z,74.11
2023-02-10T00:29:23.562Z,74.01
2023-02-10T00:31:51.546Z,74.13
2023-02-10T00:34:19.969Z,74.25
2023-02-10T00:36:51.921Z,73.97
2023-02-10T00:39:21.439Z,74.01
2023-02-10T00:41:50.231Z,74.00
2023-02-10T00:44:18.602Z,74.02
2023-02-10T00:46:49.075Z,74.11
2023-02-10T00:49:18.563Z,74.12
2023-02-10T00:51:46.620Z,74.12
2023-02-10T00:54:19.493Z,74.07
2023-02-10T00:56:47.602Z,74.09
2023-02-10T00:59:16.916Z,74.35
2023-02-10T01:01:45.224Z,74.40
2023-02-10T01:04:13.847Z,74.62
2023-02-10T01:06:42.477Z,74.64
2023-02-10T01:09:10.463Z,74.75
2023-02-10T01:11:39.293Z,74.88
2023-02-10T01:14:07.207Z,74.79
2023-02-10T01:16:39.819Z,74.67
2023-02-10T01:19:10.397Z,74.52
2023-02-10T01:21:39.730Z,74.37
2023-02-10T01:24:08.006Z,74.57
2023-02-10T01:26:36.617Z,74.37
2023-02-10T01:29:04.810Z,74.69
2023-02-10T01:31:32.936Z,74.52
2023-02-10T01:34:01.700Z,74.32
2023-02-10T01:36:29.930Z,74.61
2023-02-10T01:39:00.032Z,74.94
2023-02-10T01:41:28.806Z,74.99
2023-02-10T01:44:06.390Z,75.05
2023-02-10T01:46:36.716Z,75.20
2023-02-10T01:49:11.365Z,75.11
2023-02-10T01:51:48.369Z,75.09
2023-02-10T01:54:21.073Z,74.97
2023-02-10T01:56:50.537Z,74.95
2023-02-10T01:59:19.713Z,75.12
2023-02-10T02:01:48.875Z,75.23
2023-02-10T02:04:17.398Z,74.79
2023-02-10T02:06:47.307Z,75.09
2023-02-10T02:09:16.358Z,75.02
2023-02-10T02:12:01.266Z,74.67
2023-02-10T02:15:02.204Z,75.14
2023-02-10T02:17:40.000Z,75.08
2023-02-10T02:20:42.067Z,75.00
2023-02-10T02:23:32.061Z,74.50
2023-02-10T02:26:18.651Z,74.50
2023-02-10T02:29:25.983Z,75.21
2023-02-10T02:32:12.833Z,75.34
2023-02-10T02:34:45.573Z,74.68
2023-02-10T02:37:33.162Z,74.55
2023-02-10T02:40:03.478Z,74.44
2023-02-10T02:42:32.593Z,74.85
2023-02-10T02:45:12.222Z,74.52
2023-02-10T02:47:59.865Z,74.50
2023-02-10T02:50:48.627Z,74.77
2023-02-10T02:53:30.548Z,75.22
2023-02-10T02:56:07.439Z,74.90
2023-02-10T02:58:46.967Z,74.38
2023-02-10T03:01:33.251Z,74.20
2023-02-10T03:04:01.395Z,74.36
2023-02-10T03:06:29.461Z,74.39
2023-02-10T03:08:57.699Z,74.64
2023-02-10T03:11:26.073Z,74.22
2023-02-10T03:13:54.789Z,74.23
2023-02-10T03:16:23.105Z,73.88
2023-02-10T03:18:52.638Z,73.86
2023-02-10T03:21:21.045Z,74.25
2023-02-10T03:23:49.396Z,74.35
2023-02-10T03:26:18.041Z,74.29
2023-02-10T03:28:48.232Z,75.53
2023-02-10T03:31:16.741Z,75.83
2023-02-10T03:33:47.883Z,75.43
2023-02-10T03:36:16.090Z,75.43
2023-02-10T03:38:44.151Z,75.18
2023-02-10T03:41:12.429Z,75.45
2023-02-10T03:43:46.127Z,75.45
2023-02-10T03:46:15.203Z,75.78
2023-02-10T03:48:44.805Z,75.47
2023-02-10T03:51:14.243Z,75.43
2023-02-10T03:53:42.494Z,75.11
2023-02-10T03:56:12.312Z,75.29
2023-02-10T03:58:40.457Z,75.01
2023-02-10T04:01:16.445Z,74.75
2023-02-10T04:03:45.223Z,75.34
2023-02-10T04:06:13.532Z,74.86
2023-02-10T04:08:41.780Z,74.78
2023-02-10T04:11:29.431Z,75.05
2023-02-10T04:13:58.997Z,74.78
2023-02-10T04:16:29.673Z,74.98
2023-02-10T04:19:00.810Z,75.01
2023-02-10T04:21:28.703Z,74.58
2023-02-10T04:23:57.224Z,74.39
2023-02-10T04:26:30.420Z,74.86
2023-02-10T04:28:59.615Z,74.57
2023-02-10T04:31:28.299Z,74.89
2023-02-10T04:33:57.821Z,74.66
2023-02-10T04:36:25.772Z,74.96
2023-02-10T04:38:54.970Z,74.82
2023-02-10T04:41:23.982Z,75.06
2023-02-10T04:43:51.824Z,75.33
2023-02-10T04:46:20.325Z,75.38
2023-02-10T04:48:48.454Z,75.26
2023-02-10T04:51:16.892Z,75.13
2023-02-10T04:53:48.769Z,75.13
2023-02-10T04:56:16.921Z,75.85
2023-02-10T04:58:44.643Z,75.14
2023-02-10T05:01:14.461Z,75.33
2023-02-10T05:03:42.373Z,75.37
2023-02-10T05:06:15.677Z,75.09
2023-02-10T05:08:44.096Z,74.74
2023-02-10T05:11:15.488Z,74.78
2023-02-10T05:13:45.556Z,75.04
2023-02-10T05:16:16.716Z,74.88
2023-02-10T05:18:45.958Z,74.98
2023-02-10T05:21:17.171Z,74.94
2023-02-10T05:23:46.432Z,74.83
2023-02-10T05:26:18.126Z,74.95
2023-02-10T05:28:46.443Z,74.41
2023-02-10T05:31:15.772Z,74.35
2023-02-10T05:33:48.039Z,74.33
2023-02-10T05:36:18.849Z,73.79
2023-02-10T05:39:09.029Z,73.93
2023-02-10T05:41:37.290Z,73.76
2023-02-10T05:44:05.390Z,74.12
2023-02-10T05:46:34.887Z,73.32
2023-02-10T05:49:03.113Z,72.99
2023-02-10T05:51:34.192Z,72.52
2023-02-10T05:54:02.780Z,72.62
2023-02-10T05:56:31.472Z,72.19
2023-02-10T05:58:59.797Z,71.89
2023-02-10T06:01:27.754Z,71.71
2023-02-10T06:03:56.352Z,71.82
2023-02-10T06:06:26.021Z,71.93
2023-02-10T06:08:54.448Z,71.86
2023-02-10T06:11:22.829Z,72.11
2023-02-10T06:13:54.382Z,72.10
2023-02-10T06:16:24.163Z,71.88
2023-02-10T06:18:52.882Z,71.95
2023-02-10T06:21:24.008Z,72.00
2023-02-10T06:23:56.725Z,70.83
2023-02-10T06:26:24.710Z,71.08
2023-02-10T06:28:56.663Z,70.65
2023-02-10T06:31:26.783Z,69.74
2023-02-10T06:33:56.073Z,70.02
2023-02-10T06:36:23.688Z,69.33
2023-02-10T06:39:04.393Z,69.18
2023-02-10T06:41:34.051Z,69.15
2023-02-10T06:44:02.040Z,68.55
2023-02-10T06:46:30.457Z,68.53
2023-02-10T06:49:00.939Z,69.09
2023-02-10T06:51:29.699Z,68.66
2023-02-10T06:53:59.046Z,68.63
2023-02-10T06:56:27.971Z,68.15
2023-02-10T06:59:02.042Z,67.74
2023-02-10T07:01:30.756Z,68.28
2023-02-10T07:03:59.429Z,68.05
2023-02-10T07:06:28.908Z,67.76
2023-02-10T07:08:57.315Z,67.54
2023-02-10T07:11:26.845Z,68.15
2023-02-10T07:13:57.296Z,67.64
2023-02-10T07:16:53.948Z,67.45
2023-02-10T07:19:26.853Z,67.51
2023-02-10T07:21:56.010Z,67.53
2023-02-10T07:24:23.852Z,67.37
2023-02-10T07:27:04.081Z,66.47
2023-02-10T07:29:36.708Z,65.22
2023-02-10T07:32:11.153Z,65.40
2023-02-10T07:34:44.061Z,65.33
2023-02-10T07:37:12.905Z,65.35
2023-02-10T07:39:42.880Z,65.57
2023-02-10T07:42:14.193Z,65.19
2023-02-10T07:45:16.218Z,64.75
2023-02-10T07:47:52.226Z,64.35
2023-02-10T07:50:23.193Z,64.82
2023-02-10T07:52:51.555Z,64.40
2023-02-10T07:55:20.817Z,62.95
2023-02-10T07:57:50.755Z,63.38
2023-02-10T08:00:25.474Z,63.39
2023-02-10T08:02:53.983Z,62.51
2023-02-10T08:05:22.883Z,62.83
2023-02-10T08:07:51.762Z,62.23
2023-02-10T08:10:20.794Z,62.20
2023-02-10T08:12:49.858Z,61.26
2023-02-10T08:15:18.425Z,61.49
2023-02-10T08:17:48.245Z,61.19
2023-02-10T08:20:17.347Z,60.97
2023-02-10T08:22:47.712Z,60.09
2023-02-10T08:25:17.464Z,60.62
2023-02-10T08:27:46.042Z,59.54
2023-02-10T08:30:16.874Z,60.08
2023-02-10T08:32:49.750Z,60.06
2023-02-10T08:35:20.391Z,60.73
2023-02-10T08:37:48.835Z,60.06
2023-02-10T08:40:18.585Z,58.48
2023-02-10T08:42:46.869Z,58.86
2023-02-10T08:45:15.834Z,58.95
2023-02-10T08:47:44.623Z,59.15
2023-02-10T08:50:12.931Z,58.42
2023-02-10T08:52:46.354Z,57.65
2023-02-10T08:55:16.514Z,57.84
2023-02-10T08:57:44.826Z,57.17
2023-02-10T09:00:16.373Z,57.37
2023-02-10T09:02:45.766Z,57.73
2023-02-10T09:05:17.591Z,57.42
2023-02-10T09:07:46.970Z,57.86
2023-02-10T09:10:17.611Z,56.35
2023-02-10T09:12:49.373Z,56.72
2023-02-10T09:15:18.743Z,55.54
2023-02-10T09:17:48.074Z,56.08
2023-02-10T09:20:16.567Z,55.41
2023-02-10T09:22:47.674Z,54.95
2023-02-10T09:25:17.991Z,55.71
2023-02-10T09:27:46.646Z,54.45
2023-02-10T09:30:15.175Z,54.36
2023-02-10T09:32:43.710Z,53.65
2023-02-10T09:35:13.559Z,55.62
2023-02-10T09:37:43.623Z,55.59
2023-02-10T09:40:28.751Z,55.06
2023-02-10T09:43:22.424Z,54.83
2023-02-10T09:45:54.009Z,55.27
2023-02-10T09:48:28.437Z,54.44
2023-02-10T09:51:37.720Z,53.65
2023-02-10T09:54:11.120Z,53.99
2023-02-10T09:56:39.448Z,52.58
2023-02-10T09:59:13.464Z,52.42
2023-02-10T10:02:13.480Z,52.52
2023-02-10T13:28:54.335Z,51.05
2023-02-10T13:31:42.551Z,53.01
2023-02-10T13:34:35.394Z,51.27
2023-02-10T13:37:08.702Z,53.44
2023-02-10T13:39:38.855Z,53.58
2023-02-10T13:42:29.491Z,53.69
2023-02-10T13:45:07.886Z,52.13
2023-02-10T13:47:43.662Z,52.54
2023-02-10T13:50:14.591Z,52.62
2023-02-10T13:53:08.440Z,52.24
2023-02-10T13:55:36.040Z,52.45
2023-02-10T13:58:06.644Z,52.24
2023-02-10T14:00:44.952Z,53.04
2023-02-10T14:03:12.642Z,53.06
2023-02-10T14:05:56.143Z,52.56
2023-02-10T14:08:57.407Z,54.64
2023-02-10T14:11:42.098Z,55.59
2023-02-10T14:14:36.279Z,56.38
2023-02-10T14:17:13.748Z,57.61
2023-02-10T14:19:43.124Z,57.99
2023-02-10T14:22:30.140Z,58.11
2023-02-10T14:25:04.321Z,59.30
2023-02-10T14:27:32.404Z,59.09
2023-02-10T14:30:11.938Z,59.78
2023-02-10T14:32:46.032Z,60.34
2023-02-10T14:35:28.630Z,61.75
2023-02-10T14:37:59.548Z,60.92
2023-02-10T14:40:28.685Z,63.48
2023-02-10T14:42:56.357Z,63.23
2023-02-10T14:45:26.562Z,63.07
2023-02-10T14:47:58.064Z,64.11
2023-02-10T14:50:28.598Z,64.18
2023-02-10T14:52:56.893Z,64.56
2023-02-10T14:55:27.710Z,65.37
2023-02-10T14:57:58.450Z,64.04
2023-02-10T15:00:27.262Z,65.23
2023-02-10T15:03:02.215Z,64.93
2023-02-10T15:05:36.968Z,64.79
2023-02-10T15:08:04.708Z,65.70
2023-02-10T15:10:51.777Z,65.85
2023-02-10T15:13:22.789Z,65.75
2023-02-10T15:15:51.024Z,68.24
2023-02-10T15:18:21.243Z,68.22
2023-02-10T15:21:02.226Z,68.77
2023-02-10T15:23:33.412Z,67.40
2023-02-10T15:26:22.071Z,68.81
2023-02-10T15:29:06.065Z,67.76
2023-02-10T15:31:36.573Z,67.90
2023-02-10T15:34:26.289Z,68.17
2023-02-10T15:37:00.749Z,68.20
2023-02-10T15:39:29.848Z,67.83
2023-02-10T15:41:57.750Z,67.95
2023-02-10T15:44:33.742Z,67.70
2023-02-10T15:47:16.876Z,67.87
2023-02-10T15:49:49.629Z,69.02
2023-02-10T15:52:23.055Z,70.75
2023-02-10T15:54:52.360Z,69.61
2023-02-10T15:57:20.942Z,69.26
2023-02-10T15:59:52.255Z,68.83
2023-02-10T16:02:21.763Z,70.20
2023-02-10T16:04:50.022Z,69.77
2023-02-10T16:07:27.956Z,70.39
2023-02-10T16:10:00.345Z,70.96
2023-02-10T16:12:31.962Z,70.48
2023-02-10T16:15:00.822Z,71.97
2023-02-10T16:17:31.412Z,72.18
2023-02-10T16:19:59.770Z,71.58
2023-02-10T16:22:28.289Z,71.16
2023-02-10T16:24:57.129Z,73.50
2023-02-10T16:27:25.336Z,71.57
2023-02-10T16:29:55.520Z,71.64
2023-02-10T16:32:23.372Z,74.54
2023-02-10T16:34:55.497Z,73.71
2023-02-10T16:37:24.250Z,73.22
2023-02-10T16:39:53.125Z,74.20
2023-02-10T16:42:21.795Z,74.32
2023-02-10T16:44:51.345Z,72.82
2023-02-10T16:47:22.191Z,73.28
2023-02-10T16:49:52.766Z,72.19
2023-02-10T16:52:23.336Z,72.54
2023-02-10T16:54:51.420Z,72.93
2023-02-10T16:57:19.839Z,74.33
2023-02-10T16:59:51.751Z,74.02
2023-02-10T17:02:21.772Z,74.23
2023-02-10T17:04:50.429Z,74.99
2023-02-10T17:07:18.954Z,74.43
2023-02-10T17:09:48.326Z,73.91
2023-02-10T17:12:17.149Z,74.25
2023-02-10T17:14:45.517Z,75.46
2023-02-10T17:17:14.740Z,77.13
2023-02-10T17:19:42.574Z,77.67
2023-02-10T17:22:11.058Z,76.71
2023-02-10T17:24:39.225Z,76.53
2023-02-10T17:27:07.950Z,76.33
2023-02-10T17:29:37.189Z,77.25
2023-02-10T17:32:06.795Z,76.11
2023-02-10T17:34:36.938Z,75.74
2023-02-10T17:37:06.840Z,76.27
2023-02-10T17:39:38.829Z,76.13
2023-02-10T17:42:07.312Z,76.50
2023-02-10T17:44:36.196Z,76.06
2023-02-10T17:47:05.941Z,76.47
2023-02-10T17:49:34.474Z,76.15
2023-02-10T17:52:04.107Z,76.36
2023-02-10T17:54:33.084Z,76.40
2023-02-10T17:57:00.970Z,77.85
2023-02-10T17:59:28.896Z,77.00
2023-02-10T18:01:59.652Z,76.62
2023-02-10T18:04:28.174Z,77.33
2023-02-10T18:06:57.779Z,78.10
2023-02-10T18:09:28.906Z,76.97
2023-02-10T18:11:58.865Z,77.20
2023-02-10T18:14:26.711Z,79.00
2023-02-10T18:16:55.158Z,78.90
2023-02-10T18:19:23.694Z,79.11
2023-02-10T18:21:51.667Z,78.13
2023-02-10T18:24:22.122Z,78.31
2023-02-10T18:26:51.763Z,77.83
2023-02-10T18:29:21.595Z,77.39
2023-02-10T18:31:49.847Z,76.99
2023-02-10T18:34:19.039Z,76.82
2023-02-10T18:36:47.185Z,76.37
2023-02-10T18:39:15.006Z,75.82
2023-02-10T18:41:43.317Z,75.89
2023-02-10T18:44:11.649Z,76.39
2023-02-10T18:46:41.266Z,75.49
2023-02-10T18:49:10.451Z,75.89
2023-02-10T18:51:39.627Z,75.13
2023-02-10T18:54:10.297Z,74.98
2023-02-10T18:56:38.592Z,75.39
2023-02-10T18:59:06.504Z,75.49
2023-02-10T19:01:34.276Z,75.40
2023-02-10T19:04:03.864Z,75.90
2023-02-10T19:06:32.597Z,76.09
2023-02-10T22:21:35.892Z,76.70
2023-02-10T22:24:03.838Z,76.34
2023-02-10T22:26:31.691Z,76.81
2023-02-10T22:28:59.717Z,76.67
2023-02-10T22:31:28.976Z,76.57
2023-02-10T22:33:58.047Z,75.57
2023-02-10T22:36:26.666Z,76.69
2023-02-10T22:38:54.750Z,76.99
2023-02-10T22:41:24.775Z,77.01
2023-02-10T22:43:52.896Z,76.36
2023-02-10T22:46:20.641Z,76.51
2023-02-10T22:48:49.862Z,76.02
2023-02-10T22:51:22.440Z,75.74
2023-02-10T22:53:57.217Z,75.83
2023-02-10T22:56:26.101Z,75.39
2023-02-10T22:58:53.736Z,75.56
2023-02-10T23:01:30.770Z,74.80
2023-02-10T23:03:58.661Z,74.70
2023-02-10T23:06:26.826Z,74.44
2023-02-10T23:08:54.591Z,74.39
2023-02-10T23:11:25.619Z,74.77
2023-02-10T23:13:53.700Z,75.86
2023-02-10T23:16:21.391Z,75.70
2023-02-10T23:18:49.377Z,75.88
2023-02-10T23:21:18.706Z,75.74
2023-02-10T23:23:46.627Z,75.90
2023-02-10T23:26:14.208Z,76.26
2023-02-10T23:28:42.064Z,75.95
2023-02-10T23:31:14.323Z,75.29
2023-02-10T23:33:42.163Z,74.64
2023-02-10T23:36:10.010Z,74.59
2023-02-10T23:38:37.903Z,74.72
2023-02-10T23:41:05.645Z,74.18
2023-02-10T23:43:35.725Z,73.94
2023-02-10T23:46:07.276Z,73.92
2023-02-10T23:48:35.683Z,73.73
2023-02-10T23:51:11.163Z,73.51
2023-02-10T23:53:38.974Z,73.74
2023-02-10T23:56:07.045Z,73.82
2023-02-10T23:58:36.022Z,73.61
